sensor_id;sensor_type;location;lat;lon;timestamp;P1;durP1;ratioP1;P2;durP2;ratioP2
21101;SDS011;10709;49.006;12.100;2024-02-04T00:02:09;2.07;;;1.57;;
21101;SDS011;10709;49.006;12.100;2024-02-04T00:04:42;2.30;;;1.50;;
21101;SDS011;10709;49.006;12.100;2024-02-04T00:07:09;2.83;;;1.90;;
21101;SDS011;10709;49.006;12.100;2024-02-04T00:09:35;1.40;;;1.30;;
21101;SDS011;10709;49.006;12.100;2024-02-04T00:12:06;1.50;;;1.40;;
21101;SDS011;10709;49.006;12.100;2024-02-04T00:14:32;5.47;;;1.43;;
21101;SDS011;10709;49.006;12.100;2024-02-04T00:16:59;1.70;;;1.50;;
21101;SDS011;10709;49.006;12.100;2024-02-04T00:19:25;1.67;;;1.37;;
21101;SDS011;10709;49.006;12.100;2024-02-04T00:21:53;2.33;;;1.60;;
21101;SDS011;10709;49.006;12.100;2024-02-04T00:24:21;1.90;;;1.50;;
21101;SDS011;10709;49.006;12.100;2024-02-04T00:26:48;2.60;;;1.40;;
21101;SDS011;10709;49.006;12.100;2024-02-04T00:29:14;3.00;;;1.40;;
21101;SDS011;10709;49.006;12.100;2024-02-04T00:31:41;4.50;;;1.67;;
21101;SDS011;10709;49.006;12.100;2024-02-04T00:34:07;2.03;;;1.30;;
21101;SDS011;10709;49.006;12.100;2024-02-04T00:36:34;2.67;;;1.43;;
21101;SDS011;10709;49.006;12.100;2024-02-04T00:39:02;2.13;;;1.23;;
21101;SDS011;10709;49.006;12.100;2024-02-04T00:41:29;2.80;;;1.40;;
21101;SDS011;10709;49.006;12.100;2024-02-04T00:43:57;1.57;;;1.37;;
21101;SDS011;10709;49.006;12.100;2024-02-04T00:46:25;3.27;;;1.27;;
21101;SDS011;10709;49.006;12.100;2024-02-04T00:48:52;1.70;;;1.40;;
21101;SDS011;10709;49.006;12.100;2024-02-04T00:51:19;1.77;;;1.30;;
21101;SDS011;10709;49.006;12.100;2024-02-04T00:53:46;1.77;;;1.20;;
21101;SDS011;10709;49.006;12.100;2024-02-04T00:56:13;2.57;;;1.10;;
21101;SDS011;10709;49.006;12.100;2024-02-04T00:58:39;1.80;;;1.23;;
21101;SDS011;10709;49.006;12.100;2024-02-04T01:01:06;1.53;;;1.40;;
21101;SDS011;10709;49.006;12.100;2024-02-04T01:03:33;1.50;;;1.20;;
21101;SDS011;10709;49.006;12.100;2024-02-04T01:06:01;1.57;;;1.13;;
21101;SDS011;10709;49.006;12.100;2024-02-04T01:08:28;1.30;;;1.00;;
21101;SDS011;10709;49.006;12.100;2024-02-04T01:10:55;1.70;;;1.30;;
21101;SDS011;10709;49.006;12.100;2024-02-04T01:13:23;1.63;;;1.20;;
21101;SDS011;10709;49.006;12.100;2024-02-04T01:15:49;1.93;;;1.30;;
21101;SDS011;10709;49.006;12.100;2024-02-04T01:18:18;1.10;;;1.00;;
21101;SDS011;10709;49.006;12.100;2024-02-04T01:20:46;1.87;;;1.20;;
21101;SDS011;10709;49.006;12.100;2024-02-04T01:23:14;1.17;;;1.03;;
21101;SDS011;10709;49.006;12.100;2024-02-04T01:25:43;1.53;;;0.90;;
21101;SDS011;10709;49.006;12.100;2024-02-04T01:28:11;1.23;;;0.87;;
21101;SDS011;10709;49.006;12.100;2024-02-04T01:30:37;1.83;;;1.17;;
21101;SDS011;10709;49.006;12.100;2024-02-04T01:33:04;1.10;;;1.00;;
21101;SDS011;10709;49.006;12.100;2024-02-04T01:35:34;1.80;;;1.10;;
21101;SDS011;10709;49.006;12.100;2024-02-04T01:38:00;1.20;;;1.10;;
21101;SDS011;10709;49.006;12.100;2024-02-04T01:40:28;1.33;;;0.80;;
21101;SDS011;10709;49.006;12.100;2024-02-04T01:42:59;0.97;;;0.87;;
21101;SDS011;10709;49.006;12.100;2024-02-04T01:45:25;1.10;;;0.90;;
21101;SDS011;10709;49.006;12.100;2024-02-04T01:47:53;1.60;;;1.03;;
21101;SDS011;10709;49.006;12.100;2024-02-04T01:50:20;1.10;;;0.80;;
21101;SDS011;10709;49.006;12.100;2024-02-04T01:52:48;1.20;;;0.90;;
21101;SDS011;10709;49.006;12.100;2024-02-04T01:55:17;1.07;;;0.90;;
21101;SDS011;10709;49.006;12.100;2024-02-04T01:57:48;2.40;;;0.90;;
21101;SDS011;10709;49.006;12.100;2024-02-04T02:00:21;1.00;;;0.90;;
21101;SDS011;10709;49.006;12.100;2024-02-04T02:02:51;1.10;;;0.90;;
21101;SDS011;10709;49.006;12.100;2024-02-04T02:05:19;1.13;;;1.00;;
21101;SDS011;10709;49.006;12.100;2024-02-04T02:07:46;1.03;;;0.90;;
21101;SDS011;10709;49.006;12.100;2024-02-04T02:10:17;0.90;;;0.80;;
21101;SDS011;10709;49.006;12.100;2024-02-04T02:12:47;1.40;;;1.00;;
21101;SDS011;10709;49.006;12.100;2024-02-04T02:15:18;1.10;;;1.00;;
21101;SDS011;10709;49.006;12.100;2024-02-04T02:17:51;1.20;;;1.00;;
21101;SDS011;10709;49.006;12.100;2024-02-04T02:23:53;2.13;;;0.90;;
21101;SDS011;10709;49.006;12.100;2024-02-04T02:26:31;1.80;;;0.77;;
21101;SDS011;10709;49.006;12.100;2024-02-04T02:29:00;2.40;;;0.90;;
21101;SDS011;10709;49.006;12.100;2024-02-04T02:31:28;1.40;;;0.90;;
21101;SDS011;10709;49.006;12.100;2024-02-04T02:34:11;1.63;;;0.80;;
21101;SDS011;10709;49.006;12.100;2024-02-04T02:37:08;2.43;;;0.90;;
21101;SDS011;10709;49.006;12.100;2024-02-04T02:39:49;0.90;;;0.80;;
21101;SDS011;10709;49.006;12.100;2024-02-04T02:42:24;0.60;;;0.60;;
21101;SDS011;10709;49.006;12.100;2024-02-04T02:44:53;0.87;;;0.80;;
21101;SDS011;10709;49.006;12.100;2024-02-04T02:47:21;0.90;;;0.80;;
21101;SDS011;10709;49.006;12.100;2024-02-04T02:49:53;1.00;;;0.80;;
21101;SDS011;10709;49.006;12.100;2024-02-04T02:52:21;1.57;;;0.70;;
21101;SDS011;10709;49.006;12.100;2024-02-04T02:54:48;1.27;;;0.80;;
21101;SDS011;10709;49.006;12.100;2024-02-04T02:57:15;0.70;;;0.70;;
21101;SDS011;10709;49.006;12.100;2024-02-04T02:59:41;0.70;;;0.70;;
21101;SDS011;10709;49.006;12.100;2024-02-04T03:02:09;1.73;;;0.60;;
21101;SDS011;10709;49.006;12.100;2024-02-04T03:04:39;1.60;;;0.80;;
21101;SDS011;10709;49.006;12.100;2024-02-04T03:07:06;0.60;;;0.60;;
21101;SDS011;10709;49.006;12.100;2024-02-04T03:09:34;0.70;;;0.63;;
21101;SDS011;10709;49.006;12.100;2024-02-04T03:12:00;0.60;;;0.60;;
21101;SDS011;10709;49.006;12.100;2024-02-04T03:14:27;0.83;;;0.83;;
21101;SDS011;10709;49.006;12.100;2024-02-04T03:16:53;1.00;;;0.67;;
21101;SDS011;10709;49.006;12.100;2024-02-04T03:19:20;1.80;;;0.63;;
21101;SDS011;10709;49.006;12.100;2024-02-04T03:21:47;0.90;;;0.60;;
21101;SDS011;10709;49.006;12.100;2024-02-04T03:24:15;0.83;;;0.70;;
21101;SDS011;10709;49.006;12.100;2024-02-04T03:26:41;1.30;;;0.70;;
21101;SDS011;10709;49.006;12.100;2024-02-04T03:29:09;0.83;;;0.53;;
21101;SDS011;10709;49.006;12.100;2024-02-04T03:31:36;1.03;;;0.53;;
21101;SDS011;10709;49.006;12.100;2024-02-04T03:34:03;0.50;;;0.50;;
21101;SDS011;10709;49.006;12.100;2024-02-04T03:36:30;0.50;;;0.50;;
21101;SDS011;10709;49.006;12.100;2024-02-04T03:38:57;0.80;;;0.70;;
21101;SDS011;10709;49.006;12.100;2024-02-04T03:41:24;0.60;;;0.50;;
21101;SDS011;10709;49.006;12.100;2024-02-04T03:43:51;0.57;;;0.40;;
21101;SDS011;10709;49.006;12.100;2024-02-04T03:46:17;0.60;;;0.57;;
21101;SDS011;10709;49.006;12.100;2024-02-04T03:48:44;0.60;;;0.60;;
21101;SDS011;10709;49.006;12.100;2024-02-04T03:51:17;0.60;;;0.50;;
21101;SDS011;10709;49.006;12.100;2024-02-04T03:53:45;0.63;;;0.40;;
21101;SDS011;10709;49.006;12.100;2024-02-04T03:56:13;0.60;;;0.40;;
21101;SDS011;10709;49.006;12.100;2024-02-04T03:58:40;0.70;;;0.40;;
21101;SDS011;10709;49.006;12.100;2024-02-04T04:01:10;0.70;;;0.50;;
21101;SDS011;10709;49.006;12.100;2024-02-04T04:03:39;1.57;;;0.50;;
21101;SDS011;10709;49.006;12.100;2024-02-04T04:06:07;1.03;;;0.60;;
21101;SDS011;10709;49.006;12.100;2024-02-04T04:08:36;0.40;;;0.40;;
21101;SDS011;10709;49.006;12.100;2024-02-04T04:11:03;1.27;;;0.50;;
21101;SDS011;10709;49.006;12.100;2024-02-04T04:13:30;1.50;;;0.40;;
21101;SDS011;10709;49.006;12.100;2024-02-04T04:16:02;0.50;;;0.50;;
21101;SDS011;10709;49.006;12.100;2024-02-04T04:18:30;0.40;;;0.40;;
21101;SDS011;10709;49.006;12.100;2024-02-04T04:20:57;0.40;;;0.40;;
21101;SDS011;10709;49.006;12.100;2024-02-04T04:23:24;0.50;;;0.50;;
21101;SDS011;10709;49.006;12.100;2024-02-04T04:25:51;1.07;;;0.60;;
21101;SDS011;10709;49.006;12.100;2024-02-04T04:28:18;1.13;;;0.30;;
21101;SDS011;10709;49.006;12.100;2024-02-04T04:30:46;0.80;;;0.50;;
21101;SDS011;10709;49.006;12.100;2024-02-04T04:33:12;1.23;;;0.53;;
21101;SDS011;10709;49.006;12.100;2024-02-04T04:35:42;0.50;;;0.50;;
21101;SDS011;10709;49.006;12.100;2024-02-04T04:38:08;1.30;;;0.67;;
21101;SDS011;10709;49.006;12.100;2024-02-04T04:40:35;0.97;;;0.50;;
21101;SDS011;10709;49.006;12.100;2024-02-04T04:43:01;0.90;;;0.60;;
21101;SDS011;10709;49.006;12.100;2024-02-04T04:45:28;0.60;;;0.60;;
21101;SDS011;10709;49.006;12.100;2024-02-04T04:47:55;1.70;;;0.70;;
21101;SDS011;10709;49.006;12.100;2024-02-04T04:50:22;1.13;;;0.70;;
21101;SDS011;10709;49.006;12.100;2024-02-04T04:52:49;0.67;;;0.67;;
21101;SDS011;10709;49.006;12.100;2024-02-04T04:55:16;0.70;;;0.70;;
21101;SDS011;10709;49.006;12.100;2024-02-04T04:57:43;1.57;;;0.73;;
21101;SDS011;10709;49.006;12.100;2024-02-04T05:00:11;1.00;;;0.70;;
21101;SDS011;10709;49.006;12.100;2024-02-04T05:02:42;0.80;;;0.77;;
21101;SDS011;10709;49.006;12.100;2024-02-04T05:05:10;0.73;;;0.70;;
21101;SDS011;10709;49.006;12.100;2024-02-04T05:07:38;1.17;;;0.80;;
21101;SDS011;10709;49.006;12.100;2024-02-04T05:10:05;1.30;;;0.80;;
21101;SDS011;10709;49.006;12.100;2024-02-04T05:12:32;0.70;;;0.57;;
21101;SDS011;10709;49.006;12.100;2024-02-04T05:15:00;0.77;;;0.77;;
21101;SDS011;10709;49.006;12.100;2024-02-04T05:17:27;0.97;;;0.87;;
21101;SDS011;10709;49.006;12.100;2024-02-04T05:19:54;0.80;;;0.80;;
21101;SDS011;10709;49.006;12.100;2024-02-04T05:22:21;0.90;;;0.80;;
21101;SDS011;10709;49.006;12.100;2024-02-04T05:24:47;2.50;;;0.90;;
21101;SDS011;10709;49.006;12.100;2024-02-04T05:27:14;1.30;;;1.00;;
21101;SDS011;10709;49.006;12.100;2024-02-04T05:29:40;1.17;;;1.00;;
21101;SDS011;10709;49.006;12.100;2024-02-04T05:32:07;1.80;;;1.10;;
21101;SDS011;10709;49.006;12.100;2024-02-04T05:34:34;1.40;;;1.20;;
21101;SDS011;10709;49.006;12.100;2024-02-04T05:37:01;1.00;;;0.90;;
21101;SDS011;10709;49.006;12.100;2024-02-04T05:39:31;1.10;;;1.00;;
21101;SDS011;10709;49.006;12.100;2024-02-04T05:41:58;1.37;;;1.10;;
21101;SDS011;10709;49.006;12.100;2024-02-04T05:44:24;2.23;;;1.17;;
21101;SDS011;10709;49.006;12.100;2024-02-04T05:46:51;1.07;;;0.90;;
21101;SDS011;10709;49.006;12.100;2024-02-04T05:49:18;1.73;;;1.00;;
21101;SDS011;10709;49.006;12.100;2024-02-04T05:51:46;1.10;;;0.87;;
21101;SDS011;10709;49.006;12.100;2024-02-04T05:54:14;1.87;;;0.80;;
21101;SDS011;10709;49.006;12.100;2024-02-04T05:56:40;0.87;;;0.83;;
21101;SDS011;10709;49.006;12.100;2024-02-04T05:59:07;1.33;;;0.90;;
21101;SDS011;10709;49.006;12.100;2024-02-04T06:01:34;0.93;;;0.83;;
21101;SDS011;10709;49.006;12.100;2024-02-04T06:04:00;0.90;;;0.80;;
21101;SDS011;10709;49.006;12.100;2024-02-04T06:06:27;0.70;;;0.70;;
21101;SDS011;10709;49.006;12.100;2024-02-04T06:08:56;1.57;;;0.73;;
21101;SDS011;10709;49.006;12.100;2024-02-04T06:11:23;0.73;;;0.73;;
21101;SDS011;10709;49.006;12.100;2024-02-04T06:13:49;1.07;;;0.70;;
21101;SDS011;10709;49.006;12.100;2024-02-04T06:16:17;1.17;;;0.80;;
21101;SDS011;10709;49.006;12.100;2024-02-04T06:18:45;1.77;;;0.90;;
21101;SDS011;10709;49.006;12.100;2024-02-04T06:21:11;0.70;;;0.70;;
21101;SDS011;10709;49.006;12.100;2024-02-04T06:23:39;0.93;;;0.83;;
21101;SDS011;10709;49.006;12.100;2024-02-04T06:26:06;1.67;;;0.90;;
21101;SDS011;10709;49.006;12.100;2024-02-04T06:28:33;0.90;;;0.80;;
21101;SDS011;10709;49.006;12.100;2024-02-04T06:31:00;1.07;;;0.97;;
21101;SDS011;10709;49.006;12.100;2024-02-04T06:33:27;1.17;;;1.07;;
21101;SDS011;10709;49.006;12.100;2024-02-04T06:35:57;1.20;;;1.00;;
21101;SDS011;10709;49.006;12.100;2024-02-04T06:38:24;1.90;;;1.00;;
21101;SDS011;10709;49.006;12.100;2024-02-04T06:40:52;1.80;;;1.00;;
21101;SDS011;10709;49.006;12.100;2024-02-04T06:43:18;1.83;;;0.90;;
21101;SDS011;10709;49.006;12.100;2024-02-04T06:45:45;1.27;;;1.17;;
21101;SDS011;10709;49.006;12.100;2024-02-04T06:48:12;1.00;;;0.90;;
21101;SDS011;10709;49.006;12.100;2024-02-04T06:50:40;1.07;;;0.90;;
21101;SDS011;10709;49.006;12.100;2024-02-04T06:53:07;1.20;;;1.10;;
21101;SDS011;10709;49.006;12.100;2024-02-04T06:55:34;0.90;;;0.90;;
21101;SDS011;10709;49.006;12.100;2024-02-04T06:58:00;1.83;;;1.00;;
21101;SDS011;10709;49.006;12.100;2024-02-04T07:00:28;1.03;;;0.93;;
21101;SDS011;10709;49.006;12.100;2024-02-04T07:02:55;1.23;;;1.10;;
21101;SDS011;10709;49.006;12.100;2024-02-04T07:05:22;1.03;;;0.90;;
21101;SDS011;10709;49.006;12.100;2024-02-04T07:07:49;1.13;;;0.70;;
21101;SDS011;10709;49.006;12.100;2024-02-04T07:10:17;1.00;;;0.90;;
21101;SDS011;10709;49.006;12.100;2024-02-04T07:12:46;1.80;;;0.70;;
21101;SDS011;10709;49.006;12.100;2024-02-04T07:15:14;1.07;;;0.70;;
21101;SDS011;10709;49.006;12.100;2024-02-04T07:17:41;2.20;;;0.90;;
21101;SDS011;10709;49.006;12.100;2024-02-04T07:20:25;1.00;;;0.83;;
21101;SDS011;10709;49.006;12.100;2024-02-04T07:22:52;0.83;;;0.80;;
21101;SDS011;10709;49.006;12.100;2024-02-04T07:25:19;1.40;;;1.00;;
21101;SDS011;10709;49.006;12.100;2024-02-04T07:27:48;1.57;;;1.00;;
21101;SDS011;10709;49.006;12.100;2024-02-04T07:30:15;1.00;;;0.70;;
21101;SDS011;10709;49.006;12.100;2024-02-04T07:32:44;1.90;;;0.70;;
21101;SDS011;10709;49.006;12.100;2024-02-04T07:35:11;1.43;;;0.80;;
21101;SDS011;10709;49.006;12.100;2024-02-04T07:37:39;0.70;;;0.70;;
21101;SDS011;10709;49.006;12.100;2024-02-04T07:40:13;0.97;;;0.70;;
21101;SDS011;10709;49.006;12.100;2024-02-04T07:42:41;1.30;;;0.70;;
21101;SDS011;10709;49.006;12.100;2024-02-04T07:45:09;1.03;;;0.80;;
21101;SDS011;10709;49.006;12.100;2024-02-04T07:47:43;1.23;;;0.90;;
21101;SDS011;10709;49.006;12.100;2024-02-04T07:50:16;1.07;;;0.80;;
21101;SDS011;10709;49.006;12.100;2024-02-04T07:52:47;1.60;;;0.90;;
21101;SDS011;10709;49.006;12.100;2024-02-04T07:55:22;0.97;;;0.77;;
21101;SDS011;10709;49.006;12.100;2024-02-04T07:59:06;1.07;;;0.73;;
21101;SDS011;10709;49.006;12.100;2024-02-04T08:02:27;0.70;;;0.70;;
21101;SDS011;10709;49.006;12.100;2024-02-04T08:05:29;1.07;;;0.70;;
21101;SDS011;10709;49.006;12.100;2024-02-04T08:09:00;1.17;;;0.70;;
21101;SDS011;10709;49.006;12.100;2024-02-04T08:11:54;1.43;;;0.83;;
21101;SDS011;10709;49.006;12.100;2024-02-04T08:18:56;1.47;;;0.77;;
21101;SDS011;10709;49.006;12.100;2024-02-04T08:22:01;1.40;;;0.80;;
21101;SDS011;10709;49.006;12.100;2024-02-04T08:25:08;0.70;;;0.60;;
21101;SDS011;10709;49.006;12.100;2024-02-04T08:27:38;1.10;;;0.67;;
21101;SDS011;10709;49.006;12.100;2024-02-04T08:30:09;1.37;;;0.50;;
21101;SDS011;10709;49.006;12.100;2024-02-04T08:32:51;1.27;;;0.70;;
21101;SDS011;10709;49.006;12.100;2024-02-04T08:35:35;1.30;;;0.60;;
21101;SDS011;10709;49.006;12.100;2024-02-04T08:38:14;1.10;;;0.60;;
21101;SDS011;10709;49.006;12.100;2024-02-04T08:40:49;1.20;;;0.70;;
21101;SDS011;10709;49.006;12.100;2024-02-04T08:43:36;0.93;;;0.53;;
21101;SDS011;10709;49.006;12.100;2024-02-04T08:46:05;1.20;;;0.67;;
21101;SDS011;10709;49.006;12.100;2024-02-04T08:48:39;1.33;;;0.40;;
21101;SDS011;10709;49.006;12.100;2024-02-04T08:51:10;1.03;;;0.80;;
21101;SDS011;10709;49.006;12.100;2024-02-04T08:53:38;0.90;;;0.77;;
21101;SDS011;10709;49.006;12.100;2024-02-04T08:56:07;0.70;;;0.50;;
21101;SDS011;10709;49.006;12.100;2024-02-04T08:58:47;1.63;;;0.60;;
21101;SDS011;10709;49.006;12.100;2024-02-04T09:01:15;0.83;;;0.63;;
21101;SDS011;10709;49.006;12.100;2024-02-04T09:03:44;1.57;;;0.70;;
21101;SDS011;10709;49.006;12.100;2024-02-04T09:06:24;0.60;;;0.50;;
21101;SDS011;10709;49.006;12.100;2024-02-04T09:08:52;1.67;;;0.53;;
21101;SDS011;10709;49.006;12.100;2024-02-04T09:11:20;0.70;;;0.60;;
21101;SDS011;10709;49.006;12.100;2024-02-04T09:13:48;1.30;;;0.60;;
21101;SDS011;10709;49.006;12.100;2024-02-04T09:16:15;0.73;;;0.53;;
21101;SDS011;10709;49.006;12.100;2024-02-04T09:18:43;1.70;;;0.50;;
21101;SDS011;10709;49.006;12.100;2024-02-04T09:21:12;1.13;;;0.77;;
21101;SDS011;10709;49.006;12.100;2024-02-04T09:23:42;0.50;;;0.50;;
21101;SDS011;10709;49.006;12.100;2024-02-04T09:26:09;5.43;;;0.67;;
21101;SDS011;10709;49.006;12.100;2024-02-04T09:28:44;0.83;;;0.70;;
21101;SDS011;10709;49.006;12.100;2024-02-04T09:31:13;0.53;;;0.53;;
21101;SDS011;10709;49.006;12.100;2024-02-04T09:33:41;0.70;;;0.70;;
21101;SDS011;10709;49.006;12.100;2024-02-04T09:36:08;0.50;;;0.50;;
21101;SDS011;10709;49.006;12.100;2024-02-04T09:38:37;0.87;;;0.50;;
21101;SDS011;10709;49.006;12.100;2024-02-04T09:41:07;0.97;;;0.40;;
21101;SDS011;10709;49.006;12.100;2024-02-04T09:43:35;1.67;;;0.40;;
21101;SDS011;10709;49.006;12.100;2024-02-04T09:46:04;0.53;;;0.40;;
21101;SDS011;10709;49.006;12.100;2024-02-04T09:48:32;0.60;;;0.50;;
21101;SDS011;10709;49.006;12.100;2024-02-04T09:51:03;2.67;;;0.60;;
21101;SDS011;10709;49.006;12.100;2024-02-04T09:53:35;0.40;;;0.40;;
21101;SDS011;10709;49.006;12.100;2024-02-04T09:56:03;0.40;;;0.40;;
21101;SDS011;10709;49.006;12.100;2024-02-04T09:58:33;0.50;;;0.50;;
21101;SDS011;10709;49.006;12.100;2024-02-04T10:01:02;0.60;;;0.40;;
21101;SDS011;10709;49.006;12.100;2024-02-04T10:03:31;0.70;;;0.40;;
21101;SDS011;10709;49.006;12.100;2024-02-04T10:05:58;0.40;;;0.40;;
21101;SDS011;10709;49.006;12.100;2024-02-04T10:08:25;0.77;;;0.50;;
21101;SDS011;10709;49.006;12.100;2024-02-04T10:10:53;0.60;;;0.40;;
21101;SDS011;10709;49.006;12.100;2024-02-04T10:13:21;0.60;;;0.40;;
21101;SDS011;10709;49.006;12.100;2024-02-04T10:15:49;2.73;;;0.43;;
21101;SDS011;10709;49.006;12.100;2024-02-04T10:18:18;0.37;;;0.30;;
21101;SDS011;10709;49.006;12.100;2024-02-04T10:20:46;0.40;;;0.40;;
21101;SDS011;10709;49.006;12.100;2024-02-04T10:23:14;1.13;;;0.40;;
21101;SDS011;10709;49.006;12.100;2024-02-04T10:25:41;1.10;;;0.33;;
21101;SDS011;10709;49.006;12.100;2024-02-04T10:28:08;0.93;;;0.47;;
21101;SDS011;10709;49.006;12.100;2024-02-04T10:30:37;0.50;;;0.50;;
21101;SDS011;10709;49.006;12.100;2024-02-04T10:33:05;0.60;;;0.60;;
21101;SDS011;10709;49.006;12.100;2024-02-04T10:35:32;0.50;;;0.50;;
21101;SDS011;10709;49.006;12.100;2024-02-04T10:37:59;0.60;;;0.60;;
21101;SDS011;10709;49.006;12.100;2024-02-04T10:40:27;0.80;;;0.80;;
21101;SDS011;10709;49.006;12.100;2024-02-04T10:42:55;0.70;;;0.70;;
21101;SDS011;10709;49.006;12.100;2024-02-04T10:45:30;0.97;;;0.83;;
21101;SDS011;10709;49.006;12.100;2024-02-04T10:48:00;1.07;;;0.90;;
21101;SDS011;10709;49.006;12.100;2024-02-04T10:50:28;1.17;;;0.97;;
21101;SDS011;10709;49.006;12.100;2024-02-04T10:52:58;1.67;;;0.93;;
21101;SDS011;10709;49.006;12.100;2024-02-04T10:55:28;0.97;;;0.83;;
21101;SDS011;10709;49.006;12.100;2024-02-04T10:57:57;1.27;;;1.10;;
21101;SDS011;10709;49.006;12.100;2024-02-04T11:00:25;2.00;;;1.40;;
21101;SDS011;10709;49.006;12.100;2024-02-04T11:02:54;1.73;;;1.10;;
21101;SDS011;10709;49.006;12.100;2024-02-04T11:05:22;1.23;;;1.10;;
21101;SDS011;10709;49.006;12.100;2024-02-04T11:07:49;2.80;;;1.10;;
21101;SDS011;10709;49.006;12.100;2024-02-04T11:10:17;1.10;;;1.00;;
21101;SDS011;10709;49.006;12.100;2024-02-04T11:12:46;1.37;;;1.17;;
21101;SDS011;10709;49.006;12.100;2024-02-04T11:15:17;1.10;;;1.00;;
21101;SDS011;10709;49.006;12.100;2024-02-04T11:26:47;1.73;;;1.20;;
21101;SDS011;10709;49.006;12.100;2024-02-04T11:29:17;1.40;;;1.30;;
21101;SDS011;10709;49.006;12.100;2024-02-04T11:31:45;1.53;;;1.40;;
21101;SDS011;10709;49.006;12.100;2024-02-04T11:34:14;1.50;;;1.10;;
21101;SDS011;10709;49.006;12.100;2024-02-04T11:36:43;1.53;;;1.13;;
21101;SDS011;10709;49.006;12.100;2024-02-04T11:39:18;1.20;;;1.10;;
21101;SDS011;10709;49.006;12.100;2024-02-04T11:41:50;3.47;;;1.30;;
21101;SDS011;10709;49.006;12.100;2024-02-04T11:44:24;2.13;;;1.50;;
21101;SDS011;10709;49.006;12.100;2024-02-04T11:46:52;3.23;;;1.67;;
21101;SDS011;10709;49.006;12.100;2024-02-04T11:49:25;1.43;;;1.20;;
21101;SDS011;10709;49.006;12.100;2024-02-04T11:51:54;1.50;;;1.40;;
21101;SDS011;10709;49.006;12.100;2024-02-04T11:54:22;1.40;;;1.20;;
21101;SDS011;10709;49.006;12.100;2024-02-04T11:56:53;1.27;;;1.10;;
21101;SDS011;10709;49.006;12.100;2024-02-04T11:59:20;2.47;;;0.97;;
21101;SDS011;10709;49.006;12.100;2024-02-04T12:01:54;1.90;;;1.10;;
21101;SDS011;10709;49.006;12.100;2024-02-04T12:04:27;2.37;;;1.03;;
21101;SDS011;10709;49.006;12.100;2024-02-04T12:06:54;1.23;;;1.03;;
21101;SDS011;10709;49.006;12.100;2024-02-04T12:09:22;1.20;;;1.10;;
21101;SDS011;10709;49.006;12.100;2024-02-04T12:11:50;0.90;;;0.90;;
21101;SDS011;10709;49.006;12.100;2024-02-04T12:14:18;1.03;;;0.90;;
21101;SDS011;10709;49.006;12.100;2024-02-04T12:16:46;0.80;;;0.80;;
21101;SDS011;10709;49.006;12.100;2024-02-04T12:19:16;1.03;;;0.80;;
21101;SDS011;10709;49.006;12.100;2024-02-04T12:21:43;0.93;;;0.90;;
21101;SDS011;10709;49.006;12.100;2024-02-04T12:24:11;1.37;;;1.00;;
21101;SDS011;10709;49.006;12.100;2024-02-04T12:26:39;1.20;;;1.10;;
21101;SDS011;10709;49.006;12.100;2024-02-04T12:29:07;1.20;;;1.10;;
21101;SDS011;10709;49.006;12.100;2024-02-04T12:31:35;3.00;;;1.30;;
21101;SDS011;10709;49.006;12.100;2024-02-04T12:34:08;3.03;;;1.50;;
21101;SDS011;10709;49.006;12.100;2024-02-04T12:36:35;2.30;;;1.50;;
21101;SDS011;10709;49.006;12.100;2024-02-04T12:39:02;2.00;;;1.60;;
21101;SDS011;10709;49.006;12.100;2024-02-04T12:41:30;1.97;;;1.77;;
21101;SDS011;10709;49.006;12.100;2024-02-04T12:43:58;2.30;;;2.00;;
21101;SDS011;10709;49.006;12.100;2024-02-04T12:46:28;1.80;;;1.67;;
21101;SDS011;10709;49.006;12.100;2024-02-04T12:48:56;3.20;;;1.67;;
21101;SDS011;10709;49.006;12.100;2024-02-04T12:51:30;2.67;;;1.97;;
21101;SDS011;10709;49.006;12.100;2024-02-04T12:54:04;2.13;;;1.73;;
21101;SDS011;10709;49.006;12.100;2024-02-04T12:59:30;2.43;;;2.00;;
21101;SDS011;10709;49.006;12.100;2024-02-04T13:02:04;3.33;;;1.97;;
21101;SDS011;10709;49.006;12.100;2024-02-04T13:04:42;1.93;;;1.53;;
21101;SDS011;10709;49.006;12.100;2024-02-04T13:07:13;2.40;;;2.03;;
21101;SDS011;10709;49.006;12.100;2024-02-04T13:09:41;2.37;;;1.63;;
21101;SDS011;10709;49.006;12.100;2024-02-04T13:12:09;2.60;;;1.80;;
21101;SDS011;10709;49.006;12.100;2024-02-04T13:14:41;1.50;;;1.40;;
21101;SDS011;10709;49.006;12.100;2024-02-04T13:17:09;2.37;;;1.67;;
21101;SDS011;10709;49.006;12.100;2024-02-04T13:19:38;1.70;;;1.60;;
21101;SDS011;10709;49.006;12.100;2024-02-04T13:22:05;2.47;;;1.73;;
21101;SDS011;10709;49.006;12.100;2024-02-04T13:24:33;2.93;;;1.70;;
21101;SDS011;10709;49.006;12.100;2024-02-04T13:27:00;2.20;;;1.63;;
21101;SDS011;10709;49.006;12.100;2024-02-04T13:29:29;2.63;;;1.70;;
21101;SDS011;10709;49.006;12.100;2024-02-04T13:31:58;1.60;;;1.47;;
21101;SDS011;10709;49.006;12.100;2024-02-04T13:34:25;1.93;;;1.60;;
21101;SDS011;10709;49.006;12.100;2024-02-04T13:36:51;1.50;;;1.40;;
21101;SDS011;10709;49.006;12.100;2024-02-04T13:39:18;1.47;;;1.30;;
21101;SDS011;10709;49.006;12.100;2024-02-04T13:41:44;1.83;;;1.50;;
21101;SDS011;10709;49.006;12.100;2024-02-04T13:44:13;1.97;;;1.50;;
21101;SDS011;10709;49.006;12.100;2024-02-04T13:46:43;1.50;;;1.40;;
21101;SDS011;10709;49.006;12.100;2024-02-04T13:49:10;1.63;;;1.37;;
21101;SDS011;10709;49.006;12.100;2024-02-04T13:51:41;1.97;;;1.40;;
21101;SDS011;10709;49.006;12.100;2024-02-04T13:54:11;1.43;;;1.33;;
21101;SDS011;10709;49.006;12.100;2024-02-04T13:56:44;2.80;;;1.30;;
21101;SDS011;10709;49.006;12.100;2024-02-04T13:59:12;2.33;;;1.13;;
21101;SDS011;10709;49.006;12.100;2024-02-04T14:01:39;1.43;;;1.17;;
21101;SDS011;10709;49.006;12.100;2024-02-04T14:04:06;1.30;;;1.10;;
21101;SDS011;10709;49.006;12.100;2024-02-04T14:06:35;1.60;;;1.07;;
21101;SDS011;10709;49.006;12.100;2024-02-04T14:09:03;3.83;;;1.13;;
21101;SDS011;10709;49.006;12.100;2024-02-04T14:11:31;1.53;;;1.13;;
21101;SDS011;10709;49.006;12.100;2024-02-04T14:13:58;2.17;;;1.00;;
21101;SDS011;10709;49.006;12.100;2024-02-04T14:16:25;0.63;;;0.63;;
21101;SDS011;10709;49.006;12.100;2024-02-04T14:18:51;1.40;;;0.70;;
21101;SDS011;10709;49.006;12.100;2024-02-04T14:21:21;0.60;;;0.57;;
21101;SDS011;10709;49.006;12.100;2024-02-04T14:23:49;0.40;;;0.40;;
21101;SDS011;10709;49.006;12.100;2024-02-04T14:26:18;0.50;;;0.40;;
21101;SDS011;10709;49.006;12.100;2024-02-04T14:28:45;0.40;;;0.40;;
21101;SDS011;10709;49.006;12.100;2024-02-04T14:31:12;2.50;;;0.40;;
21101;SDS011;10709;49.006;12.100;2024-02-04T14:33:40;0.50;;;0.40;;
21101;SDS011;10709;49.006;12.100;2024-02-04T14:36:07;0.70;;;0.33;;
21101;SDS011;10709;49.006;12.100;2024-02-04T14:38:34;0.47;;;0.40;;
21101;SDS011;10709;49.006;12.100;2024-02-04T14:41:05;0.40;;;0.40;;
21101;SDS011;10709;49.006;12.100;2024-02-04T14:43:32;0.70;;;0.50;;
21101;SDS011;10709;49.006;12.100;2024-02-04T14:46:00;0.40;;;0.40;;
21101;SDS011;10709;49.006;12.100;2024-02-04T14:48:27;1.03;;;0.50;;
21101;SDS011;10709;49.006;12.100;2024-02-04T14:50:56;0.50;;;0.50;;
21101;SDS011;10709;49.006;12.100;2024-02-04T14:53:28;0.50;;;0.50;;
21101;SDS011;10709;49.006;12.100;2024-02-04T14:55:57;0.40;;;0.40;;
21101;SDS011;10709;49.006;12.100;2024-02-04T14:58:24;0.47;;;0.30;;
21101;SDS011;10709;49.006;12.100;2024-02-04T15:00:52;0.40;;;0.40;;
21101;SDS011;10709;49.006;12.100;2024-02-04T15:03:18;0.50;;;0.40;;
21101;SDS011;10709;49.006;12.100;2024-02-04T15:05:45;0.40;;;0.40;;
21101;SDS011;10709;49.006;12.100;2024-02-04T15:08:16;0.40;;;0.40;;